QTR77 OEDF-OOMS
Flight info
| Callsign | QTR77 |
|---|---|
| Flight time | 1h 15m |
| Altitude | 29000 |
| Route | LADNA1E LADNA N318 OVONA T665 KUSBA Q576 UKUVO G462 ROVOS P899 VELOD DCT BUBIL DCT ITLAK DCT |
| Aircraft | A332/H-SDE3GHIJ2J3J5M1RVWXY/LB2D1 |
Departure
| Time | 2026-05-07 09:25 |
|---|---|
| Airport | King Fahd International Airport (OEDF) |
Arrival
| Time | 2026-05-07 10:40 |
|---|---|
| Airport | Muscat International Airport (OOMS) |
| Time | Latitude | Longitude | Altitude | Speed | Heading |
|---|---|---|---|---|---|
| 2026-05-07 09:20 | 26.46566 | 49.79576 | 87 ft | 0 kts | 85° |
| 2026-05-07 09:23 | 26.46564 | 49.79553 | 85 ft | 0 kts | 264° |
| 2026-05-07 09:23 | 26.45426 | 49.79326 | 83 ft | 0 kts | 265° |
| 2026-05-07 09:23 | 26.45426 | 49.79322 | 83 ft | 3 kts | 265° |
| 2026-05-07 09:24 | 26.45428 | 49.79283 | 85 ft | 7 kts | 280° |
| 2026-05-07 09:24 | 26.45454 | 49.79213 | 86 ft | 12 kts | 304° |
| 2026-05-07 09:24 | 26.45548 | 49.79161 | 86 ft | 27 kts | 343° |
| 2026-05-07 09:24 | 26.46039 | 49.79012 | 87 ft | 124 kts | 345° |
| 2026-05-07 09:25 | 26.47139 | 49.78635 | 495 ft | 193 kts | 342° |
| 2026-05-07 09:25 | 26.48509 | 49.78157 | 1849 ft | 217 kts | 347° |
| 2026-05-07 09:25 | 26.49989 | 49.77700 | 3144 ft | 221 kts | 343° |
| 2026-05-07 09:25 | 26.51451 | 49.77270 | 4280 ft | 217 kts | 343° |
| 2026-05-07 09:26 | 26.52925 | 49.76882 | 5525 ft | 213 kts | 347° |
| 2026-05-07 09:26 | 26.54374 | 49.76851 | 6791 ft | 204 kts | 6° |
| 2026-05-07 09:26 | 26.55734 | 49.77278 | 7854 ft | 208 kts | 23° |
| 2026-05-07 09:26 | 26.56996 | 49.78295 | 8399 ft | 244 kts | 49° |
| 2026-05-07 09:27 | 26.57820 | 49.80081 | 8789 ft | 277 kts | 77° |
| 2026-05-07 09:27 | 26.58202 | 49.82288 | 9333 ft | 300 kts | 83° |
| 2026-05-07 09:27 | 26.58887 | 49.87160 | 10637 ft | 335 kts | 82° |
| 2026-05-07 09:28 | 26.59292 | 49.89795 | 11254 ft | 353 kts | 81° |
| 2026-05-07 09:28 | 26.59724 | 49.92500 | 12079 ft | 359 kts | 81° |
| 2026-05-07 09:28 | 26.60172 | 49.95248 | 13184 ft | 359 kts | 81° |
| 2026-05-07 09:28 | 26.60625 | 49.98022 | 14079 ft | 366 kts | 80° |
| 2026-05-07 09:29 | 26.61090 | 50.00863 | 14829 ft | 374 kts | 79° |
| 2026-05-07 09:29 | 26.61562 | 50.03741 | 15722 ft | 379 kts | 79° |
| 2026-05-07 09:29 | 26.62041 | 50.06663 | 16573 ft | 385 kts | 79° |
| 2026-05-07 09:29 | 26.62517 | 50.09589 | 17413 ft | 389 kts | 80° |
| 2026-05-07 09:30 | 26.62775 | 50.12613 | 18228 ft | 395 kts | 90° |
| 2026-05-07 09:30 | 26.62423 | 50.15673 | 18975 ft | 399 kts | 106° |
| 2026-05-07 09:30 | 26.61377 | 50.18545 | 19717 ft | 400 kts | 122° |
| 2026-05-07 09:30 | 26.59749 | 50.21070 | 20428 ft | 402 kts | 132° |
| 2026-05-07 09:31 | 26.57901 | 50.23434 | 21137 ft | 407 kts | 134° |
| 2026-05-07 09:31 | 26.55993 | 50.25808 | 21850 ft | 411 kts | 135° |
| 2026-05-07 09:31 | 26.54073 | 50.28204 | 22560 ft | 415 kts | 135° |
| 2026-05-07 09:31 | 26.52139 | 50.30628 | 23269 ft | 420 kts | 135° |
| 2026-05-07 09:32 | 26.50215 | 50.33050 | 23847 ft | 424 kts | 135° |
| 2026-05-07 09:32 | 26.48263 | 50.35547 | 24400 ft | 430 kts | 133° |
| 2026-05-07 09:32 | 26.46551 | 50.38329 | 24923 ft | 439 kts | 122° |
| 2026-05-07 09:32 | 26.45303 | 50.41473 | 25441 ft | 447 kts | 114° |
| 2026-05-07 09:33 | 26.44262 | 50.44764 | 25952 ft | 453 kts | 111° |
| 2026-05-07 09:33 | 26.43316 | 50.48141 | 26448 ft | 458 kts | 110° |
| 2026-05-07 09:33 | 26.42406 | 50.51563 | 26942 ft | 462 kts | 110° |
| 2026-05-07 09:33 | 26.41490 | 50.55028 | 27435 ft | 467 kts | 110° |
| 2026-05-07 09:34 | 26.40568 | 50.58467 | 27909 ft | 471 kts | 110° |
| 2026-05-07 09:34 | 26.39608 | 50.61975 | 28390 ft | 475 kts | 111° |
| 2026-05-07 09:34 | 26.38622 | 50.65508 | 28739 ft | 478 kts | 111° |
| 2026-05-07 09:34 | 26.37636 | 50.69007 | 28844 ft | 463 kts | 111° |
| 2026-05-07 09:35 | 26.36688 | 50.72371 | 28831 ft | 446 kts | 112° |
| 2026-05-07 09:35 | 26.35767 | 50.75621 | 28837 ft | 432 kts | 112° |
| 2026-05-07 09:35 | 26.34863 | 50.78793 | 28834 ft | 428 kts | 112° |
| 2026-05-07 09:36 | 26.33048 | 50.85110 | 28824 ft | 439 kts | 112° |
| 2026-05-07 09:36 | 26.32091 | 50.88417 | 28830 ft | 457 kts | 112° |
| 2026-05-07 09:36 | 26.31099 | 50.91851 | 28828 ft | 473 kts | 112° |
| 2026-05-07 09:37 | 26.28299 | 50.98586 | 28830 ft | 483 kts | 122° |
| 2026-05-07 09:37 | 26.25088 | 51.05164 | 28828 ft | 481 kts | 124° |
| 2026-05-07 09:38 | 26.21805 | 51.11650 | 28825 ft | 480 kts | 124° |
| 2026-05-07 09:38 | 26.18541 | 51.18087 | 28827 ft | 479 kts | 124° |
| 2026-05-07 09:39 | 26.15272 | 51.24556 | 28825 ft | 479 kts | 124° |
| 2026-05-07 09:39 | 26.12004 | 51.31029 | 28826 ft | 480 kts | 124° |
| 2026-05-07 09:40 | 26.08733 | 51.37502 | 28828 ft | 479 kts | 124° |
| 2026-05-07 09:40 | 26.05462 | 51.43966 | 28817 ft | 479 kts | 123° |
| 2026-05-07 09:41 | 26.02189 | 51.50424 | 28817 ft | 479 kts | 123° |
| 2026-05-07 09:41 | 25.98934 | 51.56837 | 28819 ft | 479 kts | 123° |
| 2026-05-07 09:42 | 25.95651 | 51.63294 | 28812 ft | 479 kts | 124° |
| 2026-05-07 09:42 | 25.92360 | 51.69757 | 28806 ft | 480 kts | 123° |
| 2026-05-07 09:43 | 25.89100 | 51.76233 | 28811 ft | 480 kts | 123° |
| 2026-05-07 09:43 | 25.85932 | 51.82709 | 28808 ft | 480 kts | 122° |
| 2026-05-07 09:44 | 25.82811 | 51.89276 | 28806 ft | 482 kts | 120° |
| 2026-05-07 09:44 | 25.79954 | 51.96023 | 28811 ft | 483 kts | 118° |
| 2026-05-07 09:45 | 25.77163 | 52.02811 | 28807 ft | 483 kts | 118° |
| 2026-05-07 09:45 | 25.74349 | 52.09578 | 28807 ft | 483 kts | 118° |
| 2026-05-07 09:46 | 25.71510 | 52.16325 | 28807 ft | 482 kts | 118° |
| 2026-05-07 09:46 | 25.68660 | 52.23062 | 28805 ft | 482 kts | 119° |
| 2026-05-07 09:47 | 25.65824 | 52.29757 | 28803 ft | 483 kts | 118° |
| 2026-05-07 09:47 | 25.62966 | 52.36496 | 28801 ft | 483 kts | 118° |
| 2026-05-07 09:48 | 25.59949 | 52.43142 | 28801 ft | 481 kts | 122° |
| 2026-05-07 09:48 | 25.56683 | 52.49566 | 28801 ft | 480 kts | 123° |
| 2026-05-07 09:49 | 25.53366 | 52.55994 | 28802 ft | 481 kts | 123° |
| 2026-05-07 09:49 | 25.50070 | 52.62450 | 28803 ft | 481 kts | 123° |
| 2026-05-07 09:50 | 25.47346 | 52.67821 | 28799 ft | 481 kts | 123° |
| 2026-05-07 09:50 | 25.43490 | 52.75299 | 28800 ft | 480 kts | 124° |
| 2026-05-07 09:51 | 25.40863 | 52.82131 | 28799 ft | 488 kts | 108° |
| 2026-05-07 09:51 | 25.39564 | 52.88211 | 28797 ft | 489 kts | 104° |
| 2026-05-07 09:52 | 25.38255 | 52.95613 | 28792 ft | 490 kts | 103° |
| 2026-05-07 09:52 | 25.36992 | 53.03024 | 28796 ft | 490 kts | 103° |
| 2026-05-07 09:53 | 25.35700 | 53.10424 | 28796 ft | 489 kts | 103° |
| 2026-05-07 09:53 | 25.34341 | 53.17790 | 28793 ft | 488 kts | 105° |
| 2026-05-07 09:54 | 25.32750 | 53.25088 | 28792 ft | 488 kts | 106° |
| 2026-05-07 09:54 | 25.31100 | 53.32359 | 28793 ft | 488 kts | 106° |
| 2026-05-07 09:55 | 25.29472 | 53.39595 | 28793 ft | 488 kts | 106° |
| 2026-05-07 09:55 | 25.27850 | 53.46879 | 28791 ft | 488 kts | 106° |
| 2026-05-07 09:56 | 25.26227 | 53.54175 | 28790 ft | 488 kts | 106° |
| 2026-05-07 09:56 | 25.24603 | 53.61453 | 28791 ft | 487 kts | 106° |
| 2026-05-07 09:57 | 25.22980 | 53.68712 | 28788 ft | 487 kts | 106° |
| 2026-05-07 09:57 | 25.21332 | 53.75923 | 28785 ft | 486 kts | 110° |
| 2026-05-07 09:58 | 25.18463 | 53.82605 | 28785 ft | 480 kts | 123° |
| 2026-05-07 09:58 | 25.14997 | 53.88902 | 28782 ft | 480 kts | 126° |
| 2026-05-07 09:59 | 25.11401 | 53.95141 | 28773 ft | 488 kts | 126° |
| 2026-05-07 09:59 | 25.07709 | 54.01552 | 28775 ft | 497 kts | 125° |
| 2026-05-07 10:00 | 25.04024 | 54.08008 | 28776 ft | 497 kts | 125° |
| 2026-05-07 10:00 | 25.00347 | 54.14464 | 28774 ft | 497 kts | 125° |
| 2026-05-07 10:01 | 24.96683 | 54.20890 | 28777 ft | 497 kts | 125° |
| 2026-05-07 10:01 | 24.92997 | 54.27342 | 28764 ft | 496 kts | 125° |
| 2026-05-07 10:02 | 24.89314 | 54.33779 | 28766 ft | 496 kts | 125° |
| 2026-05-07 10:02 | 24.85640 | 54.40204 | 28763 ft | 496 kts | 124° |
| 2026-05-07 10:03 | 24.82052 | 54.46693 | 28763 ft | 496 kts | 123° |
| 2026-05-07 10:03 | 24.78503 | 54.53208 | 28755 ft | 497 kts | 123° |
| 2026-05-07 10:04 | 24.74947 | 54.59719 | 28756 ft | 496 kts | 123° |
| 2026-05-07 10:04 | 24.71404 | 54.66176 | 28753 ft | 496 kts | 123° |
| 2026-05-07 10:05 | 24.67823 | 54.72677 | 28750 ft | 496 kts | 123° |
| 2026-05-07 10:05 | 24.64240 | 54.79170 | 28746 ft | 496 kts | 123° |
| 2026-05-07 10:06 | 24.60666 | 54.85639 | 28747 ft | 497 kts | 123° |
| 2026-05-07 10:06 | 24.57024 | 54.92071 | 28746 ft | 495 kts | 125° |
| 2026-05-07 10:07 | 24.53268 | 54.98397 | 28750 ft | 494 kts | 126° |
| 2026-05-07 10:07 | 24.49483 | 55.04725 | 28749 ft | 495 kts | 126° |
| 2026-05-07 10:08 | 24.45714 | 55.11049 | 28760 ft | 495 kts | 125° |
| 2026-05-07 10:08 | 24.41949 | 55.17379 | 28761 ft | 495 kts | 125° |
| 2026-05-07 10:09 | 24.38210 | 55.23652 | 28770 ft | 493 kts | 125° |
| 2026-05-07 10:09 | 24.34442 | 55.29943 | 28774 ft | 493 kts | 125° |
| 2026-05-07 10:10 | 24.31027 | 55.36489 | 28789 ft | 497 kts | 113° |
| 2026-05-07 10:10 | 24.29149 | 55.43803 | 28799 ft | 499 kts | 104° |
| 2026-05-07 10:11 | 24.27708 | 55.51193 | 28801 ft | 499 kts | 102° |
| 2026-05-07 10:11 | 24.26323 | 55.58657 | 28798 ft | 499 kts | 102° |
| 2026-05-07 10:12 | 24.24752 | 55.66028 | 28804 ft | 485 kts | 105° |
| 2026-05-07 10:12 | 24.23898 | 55.69543 | 28610 ft | 469 kts | 106° |
| 2026-05-07 10:12 | 24.23044 | 55.72964 | 28367 ft | 462 kts | 107° |
| 2026-05-07 10:12 | 24.22192 | 55.76349 | 28113 ft | 461 kts | 106° |
| 2026-05-07 10:13 | 24.21258 | 55.79713 | 27863 ft | 459 kts | 110° |
| 2026-05-07 10:13 | 24.20177 | 55.82996 | 27611 ft | 458 kts | 111° |
| 2026-05-07 10:13 | 24.19068 | 55.86253 | 27364 ft | 456 kts | 111° |
| 2026-05-07 10:13 | 24.17944 | 55.89490 | 27131 ft | 453 kts | 112° |
| 2026-05-07 10:14 | 24.16817 | 55.92704 | 26898 ft | 451 kts | 112° |
| 2026-05-07 10:14 | 24.15691 | 55.95902 | 26658 ft | 449 kts | 112° |
| 2026-05-07 10:14 | 24.14587 | 55.99042 | 26357 ft | 446 kts | 112° |
| 2026-05-07 10:14 | 24.13471 | 56.02217 | 25759 ft | 444 kts | 111° |
| 2026-05-07 10:15 | 24.12373 | 56.05344 | 25418 ft | 436 kts | 111° |
| 2026-05-07 10:15 | 24.11287 | 56.08440 | 25188 ft | 435 kts | 111° |
| 2026-05-07 10:15 | 24.10202 | 56.11534 | 24966 ft | 434 kts | 111° |
| 2026-05-07 10:15 | 24.09122 | 56.14610 | 24740 ft | 433 kts | 111° |
| 2026-05-07 10:16 | 24.08043 | 56.17683 | 24520 ft | 432 kts | 111° |
| 2026-05-07 10:16 | 24.06982 | 56.20703 | 24300 ft | 430 kts | 111° |
| 2026-05-07 10:16 | 24.05896 | 56.23790 | 24077 ft | 427 kts | 111° |
| 2026-05-07 10:16 | 24.04878 | 56.26843 | 23861 ft | 426 kts | 106° |
| 2026-05-07 10:17 | 24.04121 | 56.29932 | 23644 ft | 425 kts | 104° |
| 2026-05-07 10:17 | 24.03404 | 56.33060 | 23427 ft | 422 kts | 103° |
| 2026-05-07 10:17 | 24.02735 | 56.36181 | 23168 ft | 420 kts | 102° |
| 2026-05-07 10:17 | 24.02091 | 56.39294 | 22895 ft | 418 kts | 102° |
| 2026-05-07 10:18 | 24.01460 | 56.42385 | 22658 ft | 415 kts | 102° |
| 2026-05-07 10:18 | 24.00835 | 56.45437 | 22400 ft | 413 kts | 102° |
| 2026-05-07 10:18 | 24.00205 | 56.48503 | 22138 ft | 412 kts | 102° |
| 2026-05-07 10:18 | 23.99575 | 56.51550 | 21888 ft | 409 kts | 102° |
| 2026-05-07 10:19 | 23.98944 | 56.54574 | 21649 ft | 407 kts | 102° |
| 2026-05-07 10:19 | 23.98315 | 56.57581 | 21398 ft | 404 kts | 102° |
| 2026-05-07 10:19 | 23.97687 | 56.60567 | 21139 ft | 400 kts | 102° |
| 2026-05-07 10:19 | 23.97064 | 56.63530 | 20899 ft | 398 kts | 102° |
| 2026-05-07 10:20 | 23.96446 | 56.66467 | 20667 ft | 396 kts | 102° |
| 2026-05-07 10:20 | 23.95830 | 56.69393 | 20422 ft | 393 kts | 102° |
| 2026-05-07 10:20 | 23.95218 | 56.72295 | 20184 ft | 390 kts | 101° |
| 2026-05-07 10:20 | 23.94610 | 56.75177 | 19934 ft | 388 kts | 101° |
| 2026-05-07 10:21 | 23.94008 | 56.78036 | 19699 ft | 385 kts | 102° |
| 2026-05-07 10:21 | 23.93415 | 56.80842 | 19486 ft | 383 kts | 101° |
| 2026-05-07 10:21 | 23.92808 | 56.83713 | 19250 ft | 380 kts | 102° |
| 2026-05-07 10:21 | 23.92222 | 56.86482 | 19007 ft | 379 kts | 102° |
| 2026-05-07 10:22 | 23.91628 | 56.89286 | 18775 ft | 378 kts | 102° |
| 2026-05-07 10:22 | 23.91035 | 56.92084 | 18554 ft | 376 kts | 102° |
| 2026-05-07 10:22 | 23.90445 | 56.94866 | 18331 ft | 373 kts | 102° |
| 2026-05-07 10:22 | 23.89857 | 56.97629 | 18085 ft | 372 kts | 102° |
| 2026-05-07 10:23 | 23.89280 | 57.00342 | 17826 ft | 369 kts | 101° |
| 2026-05-07 10:23 | 23.88698 | 57.03074 | 17608 ft | 367 kts | 101° |
| 2026-05-07 10:23 | 23.88121 | 57.05790 | 17337 ft | 367 kts | 102° |
| 2026-05-07 10:23 | 23.87544 | 57.08502 | 17079 ft | 366 kts | 102° |
| 2026-05-07 10:24 | 23.86966 | 57.11212 | 16841 ft | 365 kts | 102° |
| 2026-05-07 10:24 | 23.86392 | 57.13902 | 16594 ft | 364 kts | 102° |
| 2026-05-07 10:24 | 23.85813 | 57.16608 | 16330 ft | 363 kts | 102° |
| 2026-05-07 10:24 | 23.85240 | 57.19281 | 16080 ft | 360 kts | 102° |
| 2026-05-07 10:25 | 23.84671 | 57.21942 | 15844 ft | 359 kts | 102° |
| 2026-05-07 10:25 | 23.84109 | 57.24562 | 15615 ft | 359 kts | 102° |
| 2026-05-07 10:25 | 23.83539 | 57.27218 | 15379 ft | 357 kts | 102° |
| 2026-05-07 10:25 | 23.82973 | 57.29857 | 15135 ft | 356 kts | 103° |
| 2026-05-07 10:26 | 23.82406 | 57.32495 | 14901 ft | 356 kts | 103° |
| 2026-05-07 10:26 | 23.81842 | 57.35121 | 14668 ft | 355 kts | 103° |
| 2026-05-07 10:26 | 23.81279 | 57.37736 | 14437 ft | 353 kts | 103° |
| 2026-05-07 10:26 | 23.80716 | 57.40346 | 14204 ft | 353 kts | 103° |
| 2026-05-07 10:27 | 23.80153 | 57.42953 | 13978 ft | 352 kts | 103° |
| 2026-05-07 10:27 | 23.79601 | 57.45511 | 13787 ft | 344 kts | 103° |
| 2026-05-07 10:27 | 23.79071 | 57.47963 | 13686 ft | 317 kts | 103° |
| 2026-05-07 10:27 | 23.78575 | 57.50259 | 13598 ft | 309 kts | 103° |
| 2026-05-07 10:28 | 23.78079 | 57.52552 | 13426 ft | 308 kts | 104° |
| 2026-05-07 10:28 | 23.77588 | 57.54817 | 13190 ft | 304 kts | 104° |
| 2026-05-07 10:28 | 23.76910 | 57.56962 | 12978 ft | 295 kts | 118° |
| 2026-05-07 10:28 | 23.75767 | 57.58799 | 12648 ft | 292 kts | 130° |
| 2026-05-07 10:29 | 23.74417 | 57.60455 | 12266 ft | 291 kts | 134° |
| 2026-05-07 10:29 | 23.73022 | 57.62058 | 11879 ft | 290 kts | 134° |
| 2026-05-07 10:29 | 23.71637 | 57.63623 | 11520 ft | 290 kts | 135° |
| 2026-05-07 10:30 | 23.68829 | 57.66776 | 10773 ft | 288 kts | 135° |
| 2026-05-07 10:30 | 23.67437 | 57.68337 | 10388 ft | 286 kts | 135° |
| 2026-05-07 10:30 | 23.66050 | 57.69892 | 10030 ft | 285 kts | 135° |
| 2026-05-07 10:30 | 23.64673 | 57.71435 | 9642 ft | 282 kts | 136° |
| 2026-05-07 10:31 | 23.63305 | 57.72966 | 9242 ft | 280 kts | 136° |
| 2026-05-07 10:31 | 23.61951 | 57.74483 | 8888 ft | 277 kts | 136° |
| 2026-05-07 10:31 | 23.60630 | 57.75961 | 8534 ft | 275 kts | 136° |
| 2026-05-07 10:31 | 23.59295 | 57.77456 | 8179 ft | 275 kts | 135° |
| 2026-05-07 10:32 | 23.58132 | 57.79125 | 7803 ft | 281 kts | 118° |
| 2026-05-07 10:32 | 23.57640 | 57.81199 | 7265 ft | 286 kts | 94° |
| 2026-05-07 10:32 | 23.57679 | 57.83363 | 6806 ft | 286 kts | 88° |
| 2026-05-07 10:32 | 23.57809 | 57.85509 | 6443 ft | 281 kts | 87° |
| 2026-05-07 10:33 | 23.57941 | 57.87620 | 6007 ft | 279 kts | 87° |
| 2026-05-07 10:33 | 23.58064 | 57.89695 | 5613 ft | 275 kts | 87° |
| 2026-05-07 10:33 | 23.58181 | 57.91770 | 5227 ft | 273 kts | 87° |
| 2026-05-07 10:33 | 23.58292 | 57.93818 | 5039 ft | 262 kts | 87° |
| 2026-05-07 10:34 | 23.58396 | 57.95756 | 4903 ft | 250 kts | 87° |
| 2026-05-07 10:34 | 23.58491 | 57.97571 | 4759 ft | 234 kts | 87° |
| 2026-05-07 10:34 | 23.58581 | 57.99294 | 4630 ft | 221 kts | 87° |
| 2026-05-07 10:34 | 23.58658 | 58.00934 | 4560 ft | 212 kts | 88° |
| 2026-05-07 10:35 | 23.58729 | 58.02490 | 4444 ft | 205 kts | 86° |
| 2026-05-07 10:35 | 23.58839 | 58.04019 | 4294 ft | 201 kts | 85° |
| 2026-05-07 10:35 | 23.58962 | 58.05548 | 3963 ft | 206 kts | 85° |
| 2026-05-07 10:35 | 23.59092 | 58.07141 | 3539 ft | 216 kts | 85° |
| 2026-05-07 10:36 | 23.59226 | 58.08805 | 3105 ft | 224 kts | 85° |
| 2026-05-07 10:36 | 23.59318 | 58.09941 | 2789 ft | 229 kts | 85° |
| 2026-05-07 10:36 | 23.59458 | 58.11696 | 2394 ft | 233 kts | 84° |
| 2026-05-07 10:36 | 23.59597 | 58.13441 | 2120 ft | 227 kts | 84° |
| 2026-05-07 10:37 | 23.59733 | 58.15131 | 1842 ft | 219 kts | 84° |
| 2026-05-07 10:37 | 23.59863 | 58.16750 | 1588 ft | 208 kts | 84° |
| 2026-05-07 10:37 | 23.59982 | 58.18230 | 1336 ft | 187 kts | 84° |
| 2026-05-07 10:37 | 23.60090 | 58.19580 | 1098 ft | 171 kts | 84° |
| 2026-05-07 10:38 | 23.60188 | 58.20807 | 902 ft | 153 kts | 84° |
| 2026-05-07 10:38 | 23.60275 | 58.21889 | 746 ft | 135 kts | 84° |
| 2026-05-07 10:38 | 23.60354 | 58.22864 | 574 ft | 121 kts | 84° |
| 2026-05-07 10:38 | 23.60426 | 58.23764 | 425 ft | 119 kts | 83° |
| 2026-05-07 10:39 | 23.60496 | 58.24649 | 286 ft | 118 kts | 83° |
| 2026-05-07 10:39 | 23.60576 | 58.25543 | 147 ft | 118 kts | 83° |
| 2026-05-07 10:39 | 23.60643 | 58.26432 | 45 ft | 111 kts | 83° |
| 2026-05-07 10:39 | 23.60699 | 58.27057 | 46 ft | 67 kts | 86° |
| 2026-05-07 10:40 | 23.60733 | 58.27490 | 43 ft | 52 kts | 86° |
| 2026-05-07 10:40 | 23.60760 | 58.27862 | 41 ft | 39 kts | 85° |
| 2026-05-07 10:40 | 23.60782 | 58.28160 | 40 ft | 40 kts | 88° |
| 2026-05-07 10:40 | 23.60736 | 58.28414 | 42 ft | 24 kts | 109° |
| 2026-05-07 10:41 | 23.60679 | 58.28495 | 42 ft | 11 kts | 162° |
| 2026-05-07 10:41 | 23.60293 | 58.27672 | 43 ft | 0 kts | 220° |